Portada
METAR-TAF:

METAR-TAF

Aeroports :

Kudat, Malàisia

latitud: 06-55N, longitud: 116-50E, altitud: 3 m

Observació

L'informe es va fer fa 16 minuts, a les 22:00 UTC
Vent 3 kt amb direcció variable
Temperatura 23°C
Humitat 100%
Pressió 1009 hPa
Visibilitat: 3000 m
Escasses núvols a una alçada de 1400 ft
Núvols disperses a una alçada de 14000 ft
Cel ennuvolat a una alçada de 27000 ft
calitja

METAR: WBKT 152200Z VRB03KT 3000 HZ FEW014 SCT140 BKN270 23/23 Q1009

Hora: 06:16 (22:16 UTC)


TAF: manca

Observacions i pronòstics meteorològics de més de 4000 aeroports (METAR i TAF).

Les estacions disponibles són els punts grocs i vermells al mapa.

Posi el ratolí al punt desitjat per veure el nom de l'estació.

Feu clic per veure les observacions i els pronòstics meteorològics.

Per canviar el mapa: feu clic els botons verds amb una creu de color negre per apropar; al botó verd amb un guió per allunyar la imatge; o en les fletxes verdes per a mapes adjacents.


METAR-TAF: